Aviation Digital Data Service (ADDS)

Output produced by METARs form (0101 UTC 24 August 2017)
found at http://www.aviationweather.gov/adds/metars/
 
METAR text: LRCV 240030Z AUTO 29003KT 9999 NCD 12/06 Q1019
Conditions at: LRCV (CRAIOVA , RO) observed 0030 UTC 24 August 2017
Temperature: 12.0°C (54°F)
Dewpoint: 6.0°C (43°F) [RH = 67%]
Pressure (altimeter): 30.09 inches Hg (1019.0 mb)
Winds: from the WNW (290 degrees) at 3 MPH (3 knots; 1.6 m/s)
Visibility: 6 or more miles (10+ km)
Ceiling: at least 12,000 feet AGL
Clouds: sky clear below 12,000 feet AGL
Weather: no significant weather observed at this time

Forecast for: LRCV (CRAIOVA , RO)
Text: TAF LRCV 232300Z 2400/2409 VRB04KT CAVOK
Forecast period: 0000 to 0900 UTC 24 August 2017
Forecast type: FROM: standard forecast or significant change
Winds: variable direction winds at 5 MPH (4 knots; 2.1 m/s)
Visibility: 6 or more miles (10+ km)
Clouds: not forecast
Weather: NSW  (no significant weather)